sensor_id;sensor_type;location;lat;lon;timestamp;temperature;humidity
18779;DHT22;9518;51.720;14.384;2023-05-19T00:02:25;4.90;1.00
18779;DHT22;9518;51.720;14.384;2023-05-19T00:04:52;4.80;1.00
18779;DHT22;9518;51.720;14.384;2023-05-19T00:07:23;4.80;1.00
18779;DHT22;9518;51.720;14.384;2023-05-19T00:09:52;4.70;1.00
18779;DHT22;9518;51.720;14.384;2023-05-19T00:12:19;4.70;1.00
18779;DHT22;9518;51.720;14.384;2023-05-19T00:14:47;4.70;1.00
18779;DHT22;9518;51.720;14.384;2023-05-19T00:17:16;4.70;1.00
18779;DHT22;9518;51.720;14.384;2023-05-19T00:19:43;4.70;1.00
18779;DHT22;9518;51.720;14.384;2023-05-19T00:22:10;4.70;1.00
18779;DHT22;9518;51.720;14.384;2023-05-19T00:24:37;4.60;1.00
18779;DHT22;9518;51.720;14.384;2023-05-19T00:27:04;4.60;1.00
18779;DHT22;9518;51.720;14.384;2023-05-19T00:29:31;4.50;23.60
18779;DHT22;9518;51.720;14.384;2023-05-19T00:31:58;4.50;58.50
18779;DHT22;9518;51.720;14.384;2023-05-19T00:34:26;4.50;91.80
18779;DHT22;9518;51.720;14.384;2023-05-19T00:36:53;4.50;99.90
18779;DHT22;9518;51.720;14.384;2023-05-19T00:39:20;4.50;99.90
18779;DHT22;9518;51.720;14.384;2023-05-19T00:41:47;4.40;99.90
18779;DHT22;9518;51.720;14.384;2023-05-19T00:44:14;4.40;99.90
18779;DHT22;9518;51.720;14.384;2023-05-19T00:46:41;4.40;99.90
18779;DHT22;9518;51.720;14.384;2023-05-19T00:49:08;4.40;99.90
18779;DHT22;9518;51.720;14.384;2023-05-19T00:51:37;4.40;99.90
18779;DHT22;9518;51.720;14.384;2023-05-19T00:54:04;4.40;99.90
18779;DHT22;9518;51.720;14.384;2023-05-19T00:56:31;4.30;99.90
18779;DHT22;9518;51.720;14.384;2023-05-19T00:58:59;4.30;99.90
18779;DHT22;9518;51.720;14.384;2023-05-19T01:01:26;4.30;99.90
18779;DHT22;9518;51.720;14.384;2023-05-19T01:03:54;4.30;99.90
18779;DHT22;9518;51.720;14.384;2023-05-19T01:06:23;4.40;99.90
18779;DHT22;9518;51.720;14.384;2023-05-19T01:08:53;4.30;99.90
18779;DHT22;9518;51.720;14.384;2023-05-19T01:11:22;4.30;99.90
18779;DHT22;9518;51.720;14.384;2023-05-19T01:13:49;4.20;99.90
18779;DHT22;9518;51.720;14.384;2023-05-19T01:16:21;4.30;99.90
18779;DHT22;9518;51.720;14.384;2023-05-19T01:18:58;4.30;99.90
18779;DHT22;9518;51.720;14.384;2023-05-19T01:21:46;4.30;99.90
18779;DHT22;9518;51.720;14.384;2023-05-19T01:24:54;4.20;99.90
18779;DHT22;9518;51.720;14.384;2023-05-19T01:27:46;4.20;99.90
18779;DHT22;9518;51.720;14.384;2023-05-19T01:30:25;4.10;99.90
18779;DHT22;9518;51.720;14.384;2023-05-19T01:33:05;4.10;99.90
18779;DHT22;9518;51.720;14.384;2023-05-19T01:35:34;4.20;99.90
18779;DHT22;9518;51.720;14.384;2023-05-19T01:38:03;4.20;99.90
18779;DHT22;9518;51.720;14.384;2023-05-19T01:40:31;4.10;99.90
18779;DHT22;9518;51.720;14.384;2023-05-19T01:43:00;4.10;99.90
18779;DHT22;9518;51.720;14.384;2023-05-19T01:45:30;4.10;99.90
18779;DHT22;9518;51.720;14.384;2023-05-19T01:47:59;4.10;99.90
18779;DHT22;9518;51.720;14.384;2023-05-19T01:50:26;4.20;99.90
18779;DHT22;9518;51.720;14.384;2023-05-19T01:52:54;4.20;99.90
18779;DHT22;9518;51.720;14.384;2023-05-19T01:55:21;4.30;99.90
18779;DHT22;9518;51.720;14.384;2023-05-19T01:57:54;4.40;99.90
18779;DHT22;9518;51.720;14.384;2023-05-19T02:00:34;4.50;99.90
18779;DHT22;9518;51.720;14.384;2023-05-19T02:03:13;4.50;99.90
18779;DHT22;9518;51.720;14.384;2023-05-19T02:05:50;4.60;99.90
18779;DHT22;9518;51.720;14.384;2023-05-19T02:08:24;4.60;99.90
18779;DHT22;9518;51.720;14.384;2023-05-19T02:10:56;4.60;99.90
18779;DHT22;9518;51.720;14.384;2023-05-19T02:13:28;4.60;99.90
18779;DHT22;9518;51.720;14.384;2023-05-19T02:16:01;4.70;99.90
18779;DHT22;9518;51.720;14.384;2023-05-19T02:18:29;4.80;99.90
18779;DHT22;9518;51.720;14.384;2023-05-19T02:20:56;4.80;99.90
18779;DHT22;9518;51.720;14.384;2023-05-19T02:23:23;4.90;99.90
18779;DHT22;9518;51.720;14.384;2023-05-19T02:25:50;4.90;99.90
18779;DHT22;9518;51.720;14.384;2023-05-19T02:28:17;5.00;99.90
18779;DHT22;9518;51.720;14.384;2023-05-19T02:30:44;5.00;99.90
18779;DHT22;9518;51.720;14.384;2023-05-19T02:33:12;5.10;99.90
18779;DHT22;9518;51.720;14.384;2023-05-19T02:35:39;5.10;99.90
18779;DHT22;9518;51.720;14.384;2023-05-19T02:38:06;5.20;99.90
18779;DHT22;9518;51.720;14.384;2023-05-19T02:40:33;5.10;99.90
18779;DHT22;9518;51.720;14.384;2023-05-19T02:43:00;5.10;99.90
18779;DHT22;9518;51.720;14.384;2023-05-19T02:45:28;5.00;99.90
18779;DHT22;9518;51.720;14.384;2023-05-19T02:47:54;5.00;99.90
18779;DHT22;9518;51.720;14.384;2023-05-19T02:50:23;4.90;99.90
18779;DHT22;9518;51.720;14.384;2023-05-19T02:52:50;4.90;99.90
18779;DHT22;9518;51.720;14.384;2023-05-19T02:55:18;4.90;99.90
18779;DHT22;9518;51.720;14.384;2023-05-19T02:57:45;4.90;99.90
18779;DHT22;9518;51.720;14.384;2023-05-19T03:00:13;4.80;99.90
18779;DHT22;9518;51.720;14.384;2023-05-19T03:02:40;4.80;99.90
18779;DHT22;9518;51.720;14.384;2023-05-19T03:05:09;4.70;99.90
18779;DHT22;9518;51.720;14.384;2023-05-19T03:07:37;4.70;99.90
18779;DHT22;9518;51.720;14.384;2023-05-19T03:10:05;4.70;99.90
18779;DHT22;9518;51.720;14.384;2023-05-19T03:12:33;4.70;99.90
18779;DHT22;9518;51.720;14.384;2023-05-19T03:15:00;4.60;99.90
18779;DHT22;9518;51.720;14.384;2023-05-19T03:17:27;4.60;99.90
18779;DHT22;9518;51.720;14.384;2023-05-19T03:19:58;4.70;99.90
18779;DHT22;9518;51.720;14.384;2023-05-19T03:22:26;4.70;99.90
18779;DHT22;9518;51.720;14.384;2023-05-19T03:24:54;4.80;99.90
18779;DHT22;9518;51.720;14.384;2023-05-19T03:27:23;4.80;99.90
18779;DHT22;9518;51.720;14.384;2023-05-19T03:29:50;4.90;99.90
18779;DHT22;9518;51.720;14.384;2023-05-19T03:32:18;4.90;99.90
18779;DHT22;9518;51.720;14.384;2023-05-19T03:34:45;5.00;99.90
18779;DHT22;9518;51.720;14.384;2023-05-19T03:37:12;5.10;99.90
18779;DHT22;9518;51.720;14.384;2023-05-19T03:39:39;5.20;99.90
18779;DHT22;9518;51.720;14.384;2023-05-19T03:42:07;5.30;99.90
18779;DHT22;9518;51.720;14.384;2023-05-19T03:44:34;5.40;99.90
18779;DHT22;9518;51.720;14.384;2023-05-19T03:47:01;5.50;99.90
18779;DHT22;9518;51.720;14.384;2023-05-19T03:49:28;5.60;99.90
18779;DHT22;9518;51.720;14.384;2023-05-19T03:51:55;5.60;99.90
18779;DHT22;9518;51.720;14.384;2023-05-19T03:54:22;5.60;38.70
18779;DHT22;9518;51.720;14.384;2023-05-19T03:56:49;5.60;1.00
18779;DHT22;9518;51.720;14.384;2023-05-19T03:59:18;5.60;1.00
18779;DHT22;9518;51.720;14.384;2023-05-19T04:01:45;5.60;1.00
18779;DHT22;9518;51.720;14.384;2023-05-19T04:04:12;5.60;1.00
18779;DHT22;9518;51.720;14.384;2023-05-19T04:06:39;5.70;1.00
18779;DHT22;9518;51.720;14.384;2023-05-19T04:09:10;5.80;1.00
18779;DHT22;9518;51.720;14.384;2023-05-19T04:11:38;6.00;1.00
18779;DHT22;9518;51.720;14.384;2023-05-19T04:14:06;6.10;1.00
18779;DHT22;9518;51.720;14.384;2023-05-19T04:16:34;6.20;1.00
18779;DHT22;9518;51.720;14.384;2023-05-19T04:19:01;6.30;1.00
18779;DHT22;9518;51.720;14.384;2023-05-19T04:21:28;6.50;1.00
18779;DHT22;9518;51.720;14.384;2023-05-19T04:23:55;6.60;1.00
18779;DHT22;9518;51.720;14.384;2023-05-19T04:26:24;6.80;1.00
18779;DHT22;9518;51.720;14.384;2023-05-19T04:28:51;7.00;99.90
18779;DHT22;9518;51.720;14.384;2023-05-19T04:31:18;7.10;1.00
18779;DHT22;9518;51.720;14.384;2023-05-19T04:33:47;7.30;1.00
18779;DHT22;9518;51.720;14.384;2023-05-19T04:36:14;7.40;1.00
18779;DHT22;9518;51.720;14.384;2023-05-19T04:38:46;7.60;1.00
18779;DHT22;9518;51.720;14.384;2023-05-19T04:41:13;7.70;99.90
18779;DHT22;9518;51.720;14.384;2023-05-19T04:43:41;7.80;1.00
18779;DHT22;9518;51.720;14.384;2023-05-19T04:46:09;7.90;1.00
18779;DHT22;9518;51.720;14.384;2023-05-19T04:48:37;8.00;1.00
18779;DHT22;9518;51.720;14.384;2023-05-19T04:51:05;8.20;1.00
18779;DHT22;9518;51.720;14.384;2023-05-19T04:53:33;8.30;1.00
18779;DHT22;9518;51.720;14.384;2023-05-19T04:56:00;8.30;1.00
18779;DHT22;9518;51.720;14.384;2023-05-19T04:58:27;8.40;99.90
18779;DHT22;9518;51.720;14.384;2023-05-19T05:00:54;8.50;1.00
18779;DHT22;9518;51.720;14.384;2023-05-19T05:03:22;8.70;1.00
18779;DHT22;9518;51.720;14.384;2023-05-19T05:05:49;8.70;1.00
18779;DHT22;9518;51.720;14.384;2023-05-19T05:08:18;8.80;1.00
18779;DHT22;9518;51.720;14.384;2023-05-19T05:10:48;8.90;99.90
18779;DHT22;9518;51.720;14.384;2023-05-19T05:13:16;9.00;1.00
18779;DHT22;9518;51.720;14.384;2023-05-19T05:15:43;9.10;1.00
18779;DHT22;9518;51.720;14.384;2023-05-19T05:18:11;9.20;1.00
18779;DHT22;9518;51.720;14.384;2023-05-19T05:20:39;9.30;1.00
18779;DHT22;9518;51.720;14.384;2023-05-19T05:23:07;9.40;1.00
18779;DHT22;9518;51.720;14.384;2023-05-19T05:25:37;9.50;1.00
18779;DHT22;9518;51.720;14.384;2023-05-19T05:28:04;9.60;1.00
18779;DHT22;9518;51.720;14.384;2023-05-19T05:30:33;9.60;1.00
18779;DHT22;9518;51.720;14.384;2023-05-19T05:33:00;9.70;1.00
18779;DHT22;9518;51.720;14.384;2023-05-19T05:35:27;9.90;1.00
18779;DHT22;9518;51.720;14.384;2023-05-19T05:37:54;10.00;1.00
18779;DHT22;9518;51.720;14.384;2023-05-19T05:40:21;10.20;1.00
18779;DHT22;9518;51.720;14.384;2023-05-19T05:42:50;10.30;99.90
18779;DHT22;9518;51.720;14.384;2023-05-19T05:45:17;10.50;99.90
18779;DHT22;9518;51.720;14.384;2023-05-19T05:47:44;10.60;99.90
18779;DHT22;9518;51.720;14.384;2023-05-19T05:50:12;10.70;99.90
18779;DHT22;9518;51.720;14.384;2023-05-19T05:52:40;11.00;1.00
18779;DHT22;9518;51.720;14.384;2023-05-19T05:55:09;11.00;1.00
18779;DHT22;9518;51.720;14.384;2023-05-19T05:57:36;11.20;1.00
18779;DHT22;9518;51.720;14.384;2023-05-19T06:00:08;11.50;1.00
18779;DHT22;9518;51.720;14.384;2023-05-19T06:02:40;11.70;1.00
18779;DHT22;9518;51.720;14.384;2023-05-19T06:05:08;12.00;1.00
18779;DHT22;9518;51.720;14.384;2023-05-19T06:07:37;12.10;1.00
18779;DHT22;9518;51.720;14.384;2023-05-19T06:10:05;12.20;99.90
18779;DHT22;9518;51.720;14.384;2023-05-19T06:12:33;12.40;1.00
18779;DHT22;9518;51.720;14.384;2023-05-19T06:15:01;12.60;99.90
18779;DHT22;9518;51.720;14.384;2023-05-19T06:17:30;12.70;99.90
18779;DHT22;9518;51.720;14.384;2023-05-19T06:19:59;12.70;99.90
18779;DHT22;9518;51.720;14.384;2023-05-19T06:22:25;12.80;99.90
18779;DHT22;9518;51.720;14.384;2023-05-19T06:24:53;12.80;99.90
18779;DHT22;9518;51.720;14.384;2023-05-19T06:27:20;13.10;99.90
18779;DHT22;9518;51.720;14.384;2023-05-19T06:29:47;13.30;99.90
18779;DHT22;9518;51.720;14.384;2023-05-19T06:32:14;13.40;94.40
18779;DHT22;9518;51.720;14.384;2023-05-19T06:34:42;13.40;42.90
18779;DHT22;9518;51.720;14.384;2023-05-19T06:37:09;13.60;72.00
18779;DHT22;9518;51.720;14.384;2023-05-19T06:39:37;13.90;16.80
18779;DHT22;9518;51.720;14.384;2023-05-19T06:42:04;14.30;1.00
18779;DHT22;9518;51.720;14.384;2023-05-19T06:44:31;14.70;1.00
18779;DHT22;9518;51.720;14.384;2023-05-19T06:46:58;15.00;1.00
18779;DHT22;9518;51.720;14.384;2023-05-19T06:49:25;15.30;1.00
18779;DHT22;9518;51.720;14.384;2023-05-19T06:51:55;15.40;1.00
18779;DHT22;9518;51.720;14.384;2023-05-19T06:54:22;15.60;1.00
18779;DHT22;9518;51.720;14.384;2023-05-19T06:56:49;15.50;1.00
18779;DHT22;9518;51.720;14.384;2023-05-19T06:59:16;15.30;1.00
18779;DHT22;9518;51.720;14.384;2023-05-19T07:01:46;15.10;1.00
18779;DHT22;9518;51.720;14.384;2023-05-19T07:04:13;15.20;1.00
18779;DHT22;9518;51.720;14.384;2023-05-19T07:06:40;15.40;1.00
18779;DHT22;9518;51.720;14.384;2023-05-19T07:09:09;15.80;1.00
18779;DHT22;9518;51.720;14.384;2023-05-19T07:11:36;16.10;1.00
18779;DHT22;9518;51.720;14.384;2023-05-19T07:14:03;16.30;1.00
18779;DHT22;9518;51.720;14.384;2023-05-19T07:16:29;16.50;1.00
18779;DHT22;9518;51.720;14.384;2023-05-19T07:18:56;16.70;1.00
18779;DHT22;9518;51.720;14.384;2023-05-19T07:21:23;17.00;1.00
18779;DHT22;9518;51.720;14.384;2023-05-19T07:23:50;16.90;1.00
18779;DHT22;9518;51.720;14.384;2023-05-19T07:26:19;16.70;1.00
18779;DHT22;9518;51.720;14.384;2023-05-19T07:28:47;16.40;1.00
18779;DHT22;9518;51.720;14.384;2023-05-19T07:31:15;16.60;1.00
18779;DHT22;9518;51.720;14.384;2023-05-19T07:33:42;16.70;1.00
18779;DHT22;9518;51.720;14.384;2023-05-19T07:36:09;16.90;1.00
18779;DHT22;9518;51.720;14.384;2023-05-19T07:38:36;17.60;1.00
18779;DHT22;9518;51.720;14.384;2023-05-19T07:41:03;17.80;1.00
18779;DHT22;9518;51.720;14.384;2023-05-19T07:43:31;17.80;1.00
18779;DHT22;9518;51.720;14.384;2023-05-19T07:45:58;17.70;1.00
18779;DHT22;9518;51.720;14.384;2023-05-19T07:48:25;17.70;1.00
18779;DHT22;9518;51.720;14.384;2023-05-19T07:50:52;18.00;1.00
18779;DHT22;9518;51.720;14.384;2023-05-19T07:53:19;17.80;1.00
18779;DHT22;9518;51.720;14.384;2023-05-19T07:55:47;17.80;1.00
18779;DHT22;9518;51.720;14.384;2023-05-19T07:58:14;18.00;1.00
18779;DHT22;9518;51.720;14.384;2023-05-19T08:00:43;17.90;1.00
18779;DHT22;9518;51.720;14.384;2023-05-19T08:03:10;17.90;1.00
18779;DHT22;9518;51.720;14.384;2023-05-19T08:05:37;18.00;1.00
18779;DHT22;9518;51.720;14.384;2023-05-19T08:08:05;17.90;1.00
18779;DHT22;9518;51.720;14.384;2023-05-19T08:10:32;17.90;1.00
18779;DHT22;9518;51.720;14.384;2023-05-19T08:12:59;18.00;1.00
18779;DHT22;9518;51.720;14.384;2023-05-19T08:15:26;17.80;1.00
18779;DHT22;9518;51.720;14.384;2023-05-19T08:17:54;17.80;1.00
18779;DHT22;9518;51.720;14.384;2023-05-19T08:20:21;17.90;1.00
18779;DHT22;9518;51.720;14.384;2023-05-19T08:22:48;18.00;1.00
18779;DHT22;9518;51.720;14.384;2023-05-19T08:25:15;18.20;1.00
18779;DHT22;9518;51.720;14.384;2023-05-19T08:27:44;18.50;1.00
18779;DHT22;9518;51.720;14.384;2023-05-19T08:30:12;18.60;1.00
18779;DHT22;9518;51.720;14.384;2023-05-19T08:32:39;18.60;1.00
18779;DHT22;9518;51.720;14.384;2023-05-19T08:35:08;18.20;1.00
18779;DHT22;9518;51.720;14.384;2023-05-19T08:37:35;18.40;1.00
18779;DHT22;9518;51.720;14.384;2023-05-19T08:40:03;18.60;1.00
18779;DHT22;9518;51.720;14.384;2023-05-19T08:42:30;18.40;1.00
18779;DHT22;9518;51.720;14.384;2023-05-19T08:44:58;18.40;1.00
18779;DHT22;9518;51.720;14.384;2023-05-19T08:47:26;18.30;1.00
18779;DHT22;9518;51.720;14.384;2023-05-19T08:49:58;18.30;1.00
18779;DHT22;9518;51.720;14.384;2023-05-19T08:52:34;18.60;1.00
18779;DHT22;9518;51.720;14.384;2023-05-19T08:55:04;19.00;1.00
18779;DHT22;9518;51.720;14.384;2023-05-19T08:57:31;19.40;1.00
18779;DHT22;9518;51.720;14.384;2023-05-19T08:59:59;19.20;1.00
18779;DHT22;9518;51.720;14.384;2023-05-19T09:02:26;19.00;1.00
18779;DHT22;9518;51.720;14.384;2023-05-19T09:04:54;19.00;1.00
18779;DHT22;9518;51.720;14.384;2023-05-19T09:07:23;18.80;1.00
18779;DHT22;9518;51.720;14.384;2023-05-19T09:09:52;19.00;1.00
18779;DHT22;9518;51.720;14.384;2023-05-19T09:12:19;19.50;1.00
18779;DHT22;9518;51.720;14.384;2023-05-19T09:14:52;19.40;1.00
18779;DHT22;9518;51.720;14.384;2023-05-19T09:17:26;19.20;1.00
18779;DHT22;9518;51.720;14.384;2023-05-19T09:19:54;19.10;1.00
18779;DHT22;9518;51.720;14.384;2023-05-19T09:22:21;18.90;1.00
18779;DHT22;9518;51.720;14.384;2023-05-19T09:24:48;18.50;1.00
18779;DHT22;9518;51.720;14.384;2023-05-19T09:27:20;18.30;1.00
18779;DHT22;9518;51.720;14.384;2023-05-19T09:29:48;18.00;1.00
18779;DHT22;9518;51.720;14.384;2023-05-19T09:32:23;18.00;1.00
18779;DHT22;9518;51.720;14.384;2023-05-19T09:34:52;18.40;1.00
18779;DHT22;9518;51.720;14.384;2023-05-19T09:37:22;18.60;1.00
18779;DHT22;9518;51.720;14.384;2023-05-19T09:39:49;18.50;1.00
18779;DHT22;9518;51.720;14.384;2023-05-19T09:42:25;18.60;1.00
18779;DHT22;9518;51.720;14.384;2023-05-19T09:44:58;18.60;1.00
18779;DHT22;9518;51.720;14.384;2023-05-19T09:47:26;18.80;1.00
18779;DHT22;9518;51.720;14.384;2023-05-19T09:49:53;18.90;1.00
18779;DHT22;9518;51.720;14.384;2023-05-19T09:52:21;19.30;1.00
18779;DHT22;9518;51.720;14.384;2023-05-19T09:54:48;19.70;1.00
18779;DHT22;9518;51.720;14.384;2023-05-19T09:57:16;20.20;1.00
18779;DHT22;9518;51.720;14.384;2023-05-19T09:59:45;20.40;1.00
18779;DHT22;9518;51.720;14.384;2023-05-19T10:02:15;20.30;1.00
18779;DHT22;9518;51.720;14.384;2023-05-19T10:04:44;20.30;1.00
18779;DHT22;9518;51.720;14.384;2023-05-19T10:07:13;20.50;1.00
18779;DHT22;9518;51.720;14.384;2023-05-19T10:09:42;20.10;1.00
18779;DHT22;9518;51.720;14.384;2023-05-19T10:12:11;19.70;1.00
18779;DHT22;9518;51.720;14.384;2023-05-19T10:14:39;20.30;1.00
18779;DHT22;9518;51.720;14.384;2023-05-19T10:17:08;20.70;1.00
18779;DHT22;9518;51.720;14.384;2023-05-19T10:19:37;20.10;1.00
18779;DHT22;9518;51.720;14.384;2023-05-19T10:22:05;19.70;1.00
18779;DHT22;9518;51.720;14.384;2023-05-19T10:24:32;19.20;1.00
18779;DHT22;9518;51.720;14.384;2023-05-19T10:27:02;19.00;1.00
18779;DHT22;9518;51.720;14.384;2023-05-19T10:29:30;19.00;1.00
18779;DHT22;9518;51.720;14.384;2023-05-19T10:32:02;19.50;1.00
18779;DHT22;9518;51.720;14.384;2023-05-19T10:35:06;19.80;1.00
18779;DHT22;9518;51.720;14.384;2023-05-19T10:37:40;19.10;1.00
18779;DHT22;9518;51.720;14.384;2023-05-19T10:40:14;19.10;1.00
18779;DHT22;9518;51.720;14.384;2023-05-19T10:42:54;18.90;1.00
18779;DHT22;9518;51.720;14.384;2023-05-19T10:45:26;18.80;1.00
18779;DHT22;9518;51.720;14.384;2023-05-19T10:47:54;18.90;1.00
18779;DHT22;9518;51.720;14.384;2023-05-19T10:50:22;19.20;1.00
18779;DHT22;9518;51.720;14.384;2023-05-19T10:52:52;19.60;1.00
18779;DHT22;9518;51.720;14.384;2023-05-19T10:55:44;20.00;1.00
18779;DHT22;9518;51.720;14.384;2023-05-19T10:58:12;20.20;1.00
18779;DHT22;9518;51.720;14.384;2023-05-19T11:00:39;20.80;1.00
18779;DHT22;9518;51.720;14.384;2023-05-19T11:03:13;21.30;1.00
18779;DHT22;9518;51.720;14.384;2023-05-19T11:05:41;21.10;1.00
18779;DHT22;9518;51.720;14.384;2023-05-19T11:08:10;21.70;1.00
18779;DHT22;9518;51.720;14.384;2023-05-19T11:10:38;22.20;1.00
18779;DHT22;9518;51.720;14.384;2023-05-19T11:13:05;22.10;1.00
18779;DHT22;9518;51.720;14.384;2023-05-19T11:15:34;21.80;1.00
18779;DHT22;9518;51.720;14.384;2023-05-19T11:18:02;20.70;1.00
18779;DHT22;9518;51.720;14.384;2023-05-19T11:20:30;20.10;1.00
18779;DHT22;9518;51.720;14.384;2023-05-19T11:23:07;19.20;1.00
18779;DHT22;9518;51.720;14.384;2023-05-19T11:25:42;19.00;1.00
18779;DHT22;9518;51.720;14.384;2023-05-19T11:28:10;18.60;1.00
18779;DHT22;9518;51.720;14.384;2023-05-19T11:30:40;18.60;1.00
18779;DHT22;9518;51.720;14.384;2023-05-19T11:33:07;18.80;1.00
18779;DHT22;9518;51.720;14.384;2023-05-19T11:35:35;19.10;1.00
18779;DHT22;9518;51.720;14.384;2023-05-19T11:38:02;19.20;1.00
18779;DHT22;9518;51.720;14.384;2023-05-19T11:40:31;19.40;1.00
18779;DHT22;9518;51.720;14.384;2023-05-19T11:42:58;19.30;1.00
18779;DHT22;9518;51.720;14.384;2023-05-19T11:45:27;19.50;1.00
18779;DHT22;9518;51.720;14.384;2023-05-19T11:47:54;19.30;1.00
18779;DHT22;9518;51.720;14.384;2023-05-19T11:50:22;19.50;1.00
18779;DHT22;9518;51.720;14.384;2023-05-19T11:52:50;20.10;1.00
18779;DHT22;9518;51.720;14.384;2023-05-19T11:55:18;20.00;1.00
18779;DHT22;9518;51.720;14.384;2023-05-19T11:58:01;20.00;1.00
18779;DHT22;9518;51.720;14.384;2023-05-19T12:00:29;19.60;1.00
18779;DHT22;9518;51.720;14.384;2023-05-19T12:03:01;19.20;1.00
18779;DHT22;9518;51.720;14.384;2023-05-19T12:05:29;19.00;1.00
18779;DHT22;9518;51.720;14.384;2023-05-19T12:07:56;19.00;1.00
18779;DHT22;9518;51.720;14.384;2023-05-19T12:10:25;18.90;1.00
18779;DHT22;9518;51.720;14.384;2023-05-19T12:12:53;19.10;1.00
18779;DHT22;9518;51.720;14.384;2023-05-19T12:15:22;19.30;1.00
18779;DHT22;9518;51.720;14.384;2023-05-19T12:17:49;19.70;1.00
18779;DHT22;9518;51.720;14.384;2023-05-19T12:20:17;20.20;1.00
18779;DHT22;9518;51.720;14.384;2023-05-19T12:22:45;20.10;1.00
18779;DHT22;9518;51.720;14.384;2023-05-19T12:25:14;20.50;1.00
18779;DHT22;9518;51.720;14.384;2023-05-19T12:27:42;20.70;1.00
18779;DHT22;9518;51.720;14.384;2023-05-19T12:30:10;20.60;1.00
18779;DHT22;9518;51.720;14.384;2023-05-19T12:32:39;21.00;1.00
18779;DHT22;9518;51.720;14.384;2023-05-19T12:35:07;20.50;1.00
18779;DHT22;9518;51.720;14.384;2023-05-19T12:37:36;20.20;1.00
18779;DHT22;9518;51.720;14.384;2023-05-19T12:40:07;20.40;1.00
18779;DHT22;9518;51.720;14.384;2023-05-19T12:42:35;20.40;1.00
18779;DHT22;9518;51.720;14.384;2023-05-19T12:45:03;20.40;1.00
18779;DHT22;9518;51.720;14.384;2023-05-19T12:47:31;20.40;1.00
18779;DHT22;9518;51.720;14.384;2023-05-19T12:50:05;20.30;1.00
18779;DHT22;9518;51.720;14.384;2023-05-19T12:52:40;20.50;1.00
18779;DHT22;9518;51.720;14.384;2023-05-19T12:55:08;20.60;1.00
18779;DHT22;9518;51.720;14.384;2023-05-19T12:57:37;20.60;1.00
18779;DHT22;9518;51.720;14.384;2023-05-19T13:00:06;20.80;1.00
18779;DHT22;9518;51.720;14.384;2023-05-19T13:02:35;21.50;1.00
18779;DHT22;9518;51.720;14.384;2023-05-19T13:05:21;21.60;1.00
18779;DHT22;9518;51.720;14.384;2023-05-19T13:07:53;21.30;1.00
18779;DHT22;9518;51.720;14.384;2023-05-19T13:10:20;20.90;1.00
18779;DHT22;9518;51.720;14.384;2023-05-19T13:12:47;20.30;1.00
18779;DHT22;9518;51.720;14.384;2023-05-19T13:15:14;19.80;1.00
18779;DHT22;9518;51.720;14.384;2023-05-19T13:17:41;19.20;1.00
18779;DHT22;9518;51.720;14.384;2023-05-19T13:20:11;18.90;1.00
18779;DHT22;9518;51.720;14.384;2023-05-19T13:22:40;18.80;1.00
18779;DHT22;9518;51.720;14.384;2023-05-19T13:25:08;18.80;1.00
18779;DHT22;9518;51.720;14.384;2023-05-19T13:27:36;19.20;1.00
18779;DHT22;9518;51.720;14.384;2023-05-19T13:30:03;19.60;1.00
18779;DHT22;9518;51.720;14.384;2023-05-19T13:32:30;20.10;1.00
18779;DHT22;9518;51.720;14.384;2023-05-19T13:34:58;20.30;1.00
18779;DHT22;9518;51.720;14.384;2023-05-19T13:37:25;20.40;1.00
18779;DHT22;9518;51.720;14.384;2023-05-19T13:39:54;20.30;1.00
18779;DHT22;9518;51.720;14.384;2023-05-19T13:42:22;20.50;1.00
18779;DHT22;9518;51.720;14.384;2023-05-19T13:44:52;20.40;1.00
18779;DHT22;9518;51.720;14.384;2023-05-19T13:47:19;20.00;1.00
18779;DHT22;9518;51.720;14.384;2023-05-19T13:49:46;20.10;1.00
18779;DHT22;9518;51.720;14.384;2023-05-19T13:52:13;20.30;1.00
18779;DHT22;9518;51.720;14.384;2023-05-19T13:54:40;20.50;1.00
18779;DHT22;9518;51.720;14.384;2023-05-19T13:57:09;20.30;1.00
18779;DHT22;9518;51.720;14.384;2023-05-19T13:59:36;19.70;1.00
18779;DHT22;9518;51.720;14.384;2023-05-19T14:02:17;19.30;1.00
18779;DHT22;9518;51.720;14.384;2023-05-19T14:04:45;18.80;1.00
18779;DHT22;9518;51.720;14.384;2023-05-19T14:07:12;18.60;1.00
18779;DHT22;9518;51.720;14.384;2023-05-19T14:09:41;18.10;1.00
18779;DHT22;9518;51.720;14.384;2023-05-19T14:12:09;17.80;1.00
18779;DHT22;9518;51.720;14.384;2023-05-19T14:14:38;17.80;1.00
18779;DHT22;9518;51.720;14.384;2023-05-19T14:17:05;17.90;1.00
18779;DHT22;9518;51.720;14.384;2023-05-19T14:19:32;17.90;1.00
18779;DHT22;9518;51.720;14.384;2023-05-19T14:21:59;18.00;1.00
18779;DHT22;9518;51.720;14.384;2023-05-19T14:24:26;18.30;1.00
18779;DHT22;9518;51.720;14.384;2023-05-19T14:26:53;18.30;1.00
18779;DHT22;9518;51.720;14.384;2023-05-19T14:29:21;18.00;1.00
18779;DHT22;9518;51.720;14.384;2023-05-19T14:31:48;17.90;1.00
18779;DHT22;9518;51.720;14.384;2023-05-19T14:34:15;17.70;1.00
18779;DHT22;9518;51.720;14.384;2023-05-19T14:36:45;17.70;1.00
18779;DHT22;9518;51.720;14.384;2023-05-19T14:39:13;17.70;1.00
18779;DHT22;9518;51.720;14.384;2023-05-19T14:41:40;17.90;1.00
18779;DHT22;9518;51.720;14.384;2023-05-19T14:44:07;18.00;1.00
18779;DHT22;9518;51.720;14.384;2023-05-19T14:46:35;18.30;1.00
18779;DHT22;9518;51.720;14.384;2023-05-19T14:49:02;18.60;1.00
18779;DHT22;9518;51.720;14.384;2023-05-19T14:51:31;19.00;1.00
18779;DHT22;9518;51.720;14.384;2023-05-19T14:53:58;18.90;1.00
18779;DHT22;9518;51.720;14.384;2023-05-19T14:56:26;19.00;1.00
18779;DHT22;9518;51.720;14.384;2023-05-19T14:58:53;19.00;1.00
18779;DHT22;9518;51.720;14.384;2023-05-19T15:01:21;19.00;1.00
18779;DHT22;9518;51.720;14.384;2023-05-19T15:03:49;19.10;1.00
18779;DHT22;9518;51.720;14.384;2023-05-19T15:06:16;19.20;1.00
18779;DHT22;9518;51.720;14.384;2023-05-19T15:08:43;19.40;1.00
18779;DHT22;9518;51.720;14.384;2023-05-19T15:11:10;19.40;1.00
18779;DHT22;9518;51.720;14.384;2023-05-19T15:13:37;19.50;1.00
18779;DHT22;9518;51.720;14.384;2023-05-19T15:16:04;19.20;1.00
18779;DHT22;9518;51.720;14.384;2023-05-19T15:18:34;18.80;1.00
18779;DHT22;9518;51.720;14.384;2023-05-19T15:21:03;18.50;1.00
18779;DHT22;9518;51.720;14.384;2023-05-19T15:23:30;18.30;1.00
18779;DHT22;9518;51.720;14.384;2023-05-19T15:25:57;18.20;1.00
18779;DHT22;9518;51.720;14.384;2023-05-19T15:28:25;18.10;1.00
18779;DHT22;9518;51.720;14.384;2023-05-19T15:30:52;18.20;1.00
18779;DHT22;9518;51.720;14.384;2023-05-19T15:33:19;18.10;1.00
18779;DHT22;9518;51.720;14.384;2023-05-19T15:35:46;18.10;1.00
18779;DHT22;9518;51.720;14.384;2023-05-19T15:38:17;18.10;1.00
18779;DHT22;9518;51.720;14.384;2023-05-19T15:40:44;18.00;1.00
18779;DHT22;9518;51.720;14.384;2023-05-19T15:43:11;18.00;1.00
18779;DHT22;9518;51.720;14.384;2023-05-19T15:45:38;17.90;1.00
18779;DHT22;9518;51.720;14.384;2023-05-19T15:48:06;18.00;1.00
18779;DHT22;9518;51.720;14.384;2023-05-19T15:50:33;18.10;1.00
18779;DHT22;9518;51.720;14.384;2023-05-19T15:53:00;18.00;1.00
18779;DHT22;9518;51.720;14.384;2023-05-19T15:55:28;17.80;1.00
18779;DHT22;9518;51.720;14.384;2023-05-19T15:57:55;17.60;1.00